sensor_id;sensor_type;location;lat;lon;timestamp;P1;durP1;ratioP1;P2;durP2;ratioP2
71965;SDS011;59836;52.132;5.442;2024-03-23T00:53:51;14.18;;;5.22;;
71965;SDS011;59836;52.132;5.442;2024-03-23T00:56:17;18.77;;;5.80;;
71965;SDS011;59836;52.132;5.442;2024-03-23T00:58:43;15.10;;;5.47;;
71965;SDS011;59836;52.132;5.442;2024-03-23T01:01:08;17.38;;;5.50;;
71965;SDS011;59836;52.132;5.442;2024-03-23T01:03:34;12.53;;;5.63;;
71965;SDS011;59836;52.132;5.442;2024-03-23T01:06:00;11.65;;;5.50;;
71965;SDS011;59836;52.132;5.442;2024-03-23T01:08:26;11.80;;;5.03;;
71965;SDS011;59836;52.132;5.442;2024-03-23T01:10:58;17.25;;;5.30;;
71965;SDS011;59836;52.132;5.442;2024-03-23T01:13:26;17.10;;;5.03;;
71965;SDS011;59836;52.132;5.442;2024-03-23T01:15:53;15.60;;;5.53;;
71965;SDS011;59836;52.132;5.442;2024-03-23T01:18:20;18.38;;;5.85;;
71965;SDS011;59836;52.132;5.442;2024-03-23T01:20:47;14.73;;;5.20;;
71965;SDS011;59836;52.132;5.442;2024-03-23T01:23:13;13.73;;;5.22;;
71965;SDS011;59836;52.132;5.442;2024-03-23T01:25:38;12.50;;;5.13;;
71965;SDS011;59836;52.132;5.442;2024-03-23T01:28:04;12.40;;;5.45;;
71965;SDS011;59836;52.132;5.442;2024-03-23T01:30:31;12.20;;;5.07;;
71965;SDS011;59836;52.132;5.442;2024-03-23T01:32:57;17.53;;;5.53;;
71965;SDS011;59836;52.132;5.442;2024-03-23T01:35:23;16.60;;;5.53;;
71965;SDS011;59836;52.132;5.442;2024-03-23T01:37:49;16.33;;;5.50;;
71965;SDS011;59836;52.132;5.442;2024-03-23T01:40:16;17.63;;;5.35;;
71965;SDS011;59836;52.132;5.442;2024-03-23T01:42:41;16.95;;;5.47;;
71965;SDS011;59836;52.132;5.442;2024-03-23T01:45:07;13.07;;;4.97;;
71965;SDS011;59836;52.132;5.442;2024-03-23T01:47:35;14.48;;;4.78;;
71965;SDS011;59836;52.132;5.442;2024-03-23T01:50:01;13.30;;;5.18;;
71965;SDS011;59836;52.132;5.442;2024-03-23T01:52:27;16.77;;;5.35;;
71965;SDS011;59836;52.132;5.442;2024-03-23T01:54:53;17.95;;;4.93;;
71965;SDS011;59836;52.132;5.442;2024-03-23T01:57:22;17.30;;;5.00;;
71965;SDS011;59836;52.132;5.442;2024-03-23T01:59:47;16.48;;;5.65;;
71965;SDS011;59836;52.132;5.442;2024-03-23T02:02:13;17.33;;;5.82;;
71965;SDS011;59836;52.132;5.442;2024-03-23T02:04:39;15.73;;;5.40;;
71965;SDS011;59836;52.132;5.442;2024-03-23T02:07:06;14.87;;;5.37;;
71965;SDS011;59836;52.132;5.442;2024-03-23T02:09:32;12.27;;;6.17;;
71965;SDS011;59836;52.132;5.442;2024-03-23T02:11:58;15.05;;;5.20;;
71965;SDS011;59836;52.132;5.442;2024-03-23T02:14:24;14.63;;;5.47;;
71965;SDS011;59836;52.132;5.442;2024-03-23T02:16:49;15.30;;;5.47;;
71965;SDS011;59836;52.132;5.442;2024-03-23T02:19:15;17.53;;;5.27;;
71965;SDS011;59836;52.132;5.442;2024-03-23T02:21:40;15.63;;;5.57;;
71965;SDS011;59836;52.132;5.442;2024-03-23T02:24:06;12.93;;;5.60;;
71965;SDS011;59836;52.132;5.442;2024-03-23T02:26:32;13.43;;;5.37;;
71965;SDS011;59836;52.132;5.442;2024-03-23T02:28:57;11.43;;;5.40;;
71965;SDS011;59836;52.132;5.442;2024-03-23T02:31:23;16.43;;;5.17;;
71965;SDS011;59836;52.132;5.442;2024-03-23T02:33:48;15.73;;;5.35;;
71965;SDS011;59836;52.132;5.442;2024-03-23T02:36:14;14.47;;;5.13;;
71965;SDS011;59836;52.132;5.442;2024-03-23T02:38:39;12.70;;;5.30;;
71965;SDS011;59836;52.132;5.442;2024-03-23T02:41:05;11.50;;;4.85;;
71965;SDS011;59836;52.132;5.442;2024-03-23T02:43:31;11.10;;;5.23;;
71965;SDS011;59836;52.132;5.442;2024-03-23T02:45:57;14.27;;;5.35;;
71965;SDS011;59836;52.132;5.442;2024-03-23T02:48:23;14.95;;;5.57;;
71965;SDS011;59836;52.132;5.442;2024-03-23T02:50:49;13.15;;;4.97;;
71965;SDS011;59836;52.132;5.442;2024-03-23T02:53:15;12.90;;;4.93;;
71965;SDS011;59836;52.132;5.442;2024-03-23T02:55:40;11.70;;;5.10;;
71965;SDS011;59836;52.132;5.442;2024-03-23T02:58:06;13.00;;;4.90;;
71965;SDS011;59836;52.132;5.442;2024-03-23T03:00:31;14.47;;;3.93;;
71965;SDS011;59836;52.132;5.442;2024-03-23T03:02:57;12.50;;;4.65;;
71965;SDS011;59836;52.132;5.442;2024-03-23T03:05:22;13.13;;;4.43;;
71965;SDS011;59836;52.132;5.442;2024-03-23T03:07:48;10.00;;;4.70;;
71965;SDS011;59836;52.132;5.442;2024-03-23T03:10:14;11.27;;;4.03;;
71965;SDS011;59836;52.132;5.442;2024-03-23T03:12:39;13.45;;;4.30;;
71965;SDS011;59836;52.132;5.442;2024-03-23T03:15:05;11.70;;;3.80;;
71965;SDS011;59836;52.132;5.442;2024-03-23T03:17:31;16.45;;;4.78;;
71965;SDS011;59836;52.132;5.442;2024-03-23T03:19:57;9.70;;;3.90;;
71965;SDS011;59836;52.132;5.442;2024-03-23T03:22:22;13.90;;;4.05;;
71965;SDS011;59836;52.132;5.442;2024-03-23T03:24:49;12.25;;;3.83;;
71965;SDS011;59836;52.132;5.442;2024-03-23T03:27:14;10.63;;;4.40;;
71965;SDS011;59836;52.132;5.442;2024-03-23T03:29:40;12.97;;;4.17;;
71965;SDS011;59836;52.132;5.442;2024-03-23T03:32:05;10.73;;;3.60;;
71965;SDS011;59836;52.132;5.442;2024-03-23T03:34:31;12.50;;;3.87;;
71965;SDS011;59836;52.132;5.442;2024-03-23T03:36:57;9.70;;;3.55;;
71965;SDS011;59836;52.132;5.442;2024-03-23T03:39:23;10.10;;;4.35;;
71965;SDS011;59836;52.132;5.442;2024-03-23T03:41:49;9.87;;;3.77;;
71965;SDS011;59836;52.132;5.442;2024-03-23T03:44:15;10.15;;;3.70;;
71965;SDS011;59836;52.132;5.442;2024-03-23T03:46:42;14.18;;;4.15;;
71965;SDS011;59836;52.132;5.442;2024-03-23T03:49:07;11.00;;;3.90;;
71965;SDS011;59836;52.132;5.442;2024-03-23T03:51:33;14.27;;;3.72;;
71965;SDS011;59836;52.132;5.442;2024-03-23T03:53:59;10.03;;;3.17;;
71965;SDS011;59836;52.132;5.442;2024-03-23T03:56:24;9.77;;;3.67;;
71965;SDS011;59836;52.132;5.442;2024-03-23T03:58:50;7.73;;;3.17;;
71965;SDS011;59836;52.132;5.442;2024-03-23T04:01:16;12.18;;;4.55;;
71965;SDS011;59836;52.132;5.442;2024-03-23T04:03:42;16.00;;;4.67;;
71965;SDS011;59836;52.132;5.442;2024-03-23T04:06:09;11.95;;;4.30;;
71965;SDS011;59836;52.132;5.442;2024-03-23T04:08:35;12.52;;;4.85;;
71965;SDS011;59836;52.132;5.442;2024-03-23T04:11:01;14.60;;;4.60;;
71965;SDS011;59836;52.132;5.442;2024-03-23T04:13:27;12.73;;;3.78;;
71965;SDS011;59836;52.132;5.442;2024-03-23T04:15:55;12.75;;;4.10;;
71965;SDS011;59836;52.132;5.442;2024-03-23T04:18:22;8.85;;;3.40;;
71965;SDS011;59836;52.132;5.442;2024-03-23T04:20:49;13.93;;;4.17;;
71965;SDS011;59836;52.132;5.442;2024-03-23T04:23:14;14.98;;;4.47;;
71965;SDS011;59836;52.132;5.442;2024-03-23T04:25:40;9.87;;;4.10;;
71965;SDS011;59836;52.132;5.442;2024-03-23T04:28:05;10.48;;;4.03;;
71965;SDS011;59836;52.132;5.442;2024-03-23T04:30:32;9.17;;;3.40;;
71965;SDS011;59836;52.132;5.442;2024-03-23T04:32:57;8.50;;;3.35;;
71965;SDS011;59836;52.132;5.442;2024-03-23T04:35:24;13.32;;;4.03;;
71965;SDS011;59836;52.132;5.442;2024-03-23T04:37:55;11.60;;;3.67;;
71965;SDS011;59836;52.132;5.442;2024-03-23T04:40:24;11.52;;;3.55;;
71965;SDS011;59836;52.132;5.442;2024-03-23T04:42:50;8.73;;;3.20;;
71965;SDS011;59836;52.132;5.442;2024-03-23T04:45:15;10.10;;;3.67;;
71965;SDS011;59836;52.132;5.442;2024-03-23T04:47:41;10.02;;;3.33;;
71965;SDS011;59836;52.132;5.442;2024-03-23T04:50:06;11.90;;;3.90;;
71965;SDS011;59836;52.132;5.442;2024-03-23T04:52:32;11.38;;;3.92;;
71965;SDS011;59836;52.132;5.442;2024-03-23T04:54:58;8.60;;;3.27;;
71965;SDS011;59836;52.132;5.442;2024-03-23T04:57:24;10.82;;;3.83;;
71965;SDS011;59836;52.132;5.442;2024-03-23T04:59:49;10.33;;;2.93;;
71965;SDS011;59836;52.132;5.442;2024-03-23T05:02:15;5.80;;;3.30;;
71965;SDS011;59836;52.132;5.442;2024-03-23T05:04:40;9.67;;;2.97;;
71965;SDS011;59836;52.132;5.442;2024-03-23T05:07:06;14.95;;;2.88;;
71965;SDS011;59836;52.132;5.442;2024-03-23T05:09:32;7.73;;;2.13;;
71965;SDS011;59836;52.132;5.442;2024-03-23T05:12:01;7.85;;;2.03;;
71965;SDS011;59836;52.132;5.442;2024-03-23T05:14:27;6.95;;;2.35;;
71965;SDS011;59836;52.132;5.442;2024-03-23T05:16:54;10.52;;;2.10;;
71965;SDS011;59836;52.132;5.442;2024-03-23T05:19:21;8.98;;;2.08;;
71965;SDS011;59836;52.132;5.442;2024-03-23T05:21:46;11.67;;;1.90;;
71965;SDS011;59836;52.132;5.442;2024-03-23T05:24:12;9.20;;;2.20;;
71965;SDS011;59836;52.132;5.442;2024-03-23T05:26:38;7.25;;;1.98;;
71965;SDS011;59836;52.132;5.442;2024-03-23T05:29:03;6.70;;;2.27;;
71965;SDS011;59836;52.132;5.442;2024-03-23T05:31:31;10.20;;;2.40;;
71965;SDS011;59836;52.132;5.442;2024-03-23T05:33:57;8.18;;;2.25;;
71965;SDS011;59836;52.132;5.442;2024-03-23T05:36:23;6.90;;;1.80;;
71965;SDS011;59836;52.132;5.442;2024-03-23T05:38:49;6.93;;;1.77;;
71965;SDS011;59836;52.132;5.442;2024-03-23T05:41:15;7.70;;;2.00;;
71965;SDS011;59836;52.132;5.442;2024-03-23T05:43:41;6.27;;;2.00;;
71965;SDS011;59836;52.132;5.442;2024-03-23T05:46:07;8.15;;;1.95;;
71965;SDS011;59836;52.132;5.442;2024-03-23T05:48:35;8.02;;;1.80;;
71965;SDS011;59836;52.132;5.442;2024-03-23T05:51:01;7.53;;;2.23;;
71965;SDS011;59836;52.132;5.442;2024-03-23T05:53:27;7.78;;;2.15;;
71965;SDS011;59836;52.132;5.442;2024-03-23T05:56:01;4.63;;;1.25;;
71965;SDS011;59836;52.132;5.442;2024-03-23T05:58:32;7.30;;;1.50;;
71965;SDS011;59836;52.132;5.442;2024-03-23T06:00:58;6.80;;;1.57;;
71965;SDS011;59836;52.132;5.442;2024-03-23T06:03:28;7.95;;;1.67;;
71965;SDS011;59836;52.132;5.442;2024-03-23T06:05:54;9.50;;;1.70;;
71965;SDS011;59836;52.132;5.442;2024-03-23T06:08:20;5.22;;;1.20;;
71965;SDS011;59836;52.132;5.442;2024-03-23T06:10:46;4.45;;;1.55;;
71965;SDS011;59836;52.132;5.442;2024-03-23T06:13:13;8.30;;;1.83;;
71965;SDS011;59836;52.132;5.442;2024-03-23T06:15:39;7.53;;;1.70;;
71965;SDS011;59836;52.132;5.442;2024-03-23T06:18:05;5.17;;;0.97;;
71965;SDS011;59836;52.132;5.442;2024-03-23T06:20:31;6.53;;;1.47;;
71965;SDS011;59836;52.132;5.442;2024-03-23T06:22:57;6.57;;;1.88;;
71965;SDS011;59836;52.132;5.442;2024-03-23T06:25:23;5.05;;;1.20;;
71965;SDS011;59836;52.132;5.442;2024-03-23T06:27:48;6.33;;;1.57;;
71965;SDS011;59836;52.132;5.442;2024-03-23T06:30:14;8.03;;;0.90;;
71965;SDS011;59836;52.132;5.442;2024-03-23T06:32:39;6.43;;;1.40;;
71965;SDS011;59836;52.132;5.442;2024-03-23T06:35:05;5.67;;;1.40;;
71965;SDS011;59836;52.132;5.442;2024-03-23T06:37:34;7.35;;;1.35;;
71965;SDS011;59836;52.132;5.442;2024-03-23T06:40:00;8.02;;;1.23;;
71965;SDS011;59836;52.132;5.442;2024-03-23T06:42:26;6.53;;;1.20;;
71965;SDS011;59836;52.132;5.442;2024-03-23T06:44:52;5.60;;;0.85;;
71965;SDS011;59836;52.132;5.442;2024-03-23T06:47:17;8.00;;;1.30;;
71965;SDS011;59836;52.132;5.442;2024-03-23T06:49:43;5.50;;;1.03;;
71965;SDS011;59836;52.132;5.442;2024-03-23T06:52:08;6.57;;;1.00;;
71965;SDS011;59836;52.132;5.442;2024-03-23T06:54:34;7.17;;;1.00;;
71965;SDS011;59836;52.132;5.442;2024-03-23T06:56:59;7.18;;;1.48;;
71965;SDS011;59836;52.132;5.442;2024-03-23T06:59:25;8.63;;;1.90;;
71965;SDS011;59836;52.132;5.442;2024-03-23T07:01:53;6.65;;;0.90;;
71965;SDS011;59836;52.132;5.442;2024-03-23T07:04:19;5.53;;;1.33;;
71965;SDS011;59836;52.132;5.442;2024-03-23T07:06:45;7.63;;;1.20;;
71965;SDS011;59836;52.132;5.442;2024-03-23T07:09:11;4.10;;;1.57;;
71965;SDS011;59836;52.132;5.442;2024-03-23T07:11:38;9.23;;;1.17;;
71965;SDS011;59836;52.132;5.442;2024-03-23T07:14:03;6.15;;;1.10;;
71965;SDS011;59836;52.132;5.442;2024-03-23T07:16:29;6.30;;;1.37;;
71965;SDS011;59836;52.132;5.442;2024-03-23T07:18:55;8.38;;;1.35;;
71965;SDS011;59836;52.132;5.442;2024-03-23T07:21:20;5.33;;;1.00;;
71965;SDS011;59836;52.132;5.442;2024-03-23T07:23:46;4.85;;;1.30;;
71965;SDS011;59836;52.132;5.442;2024-03-23T07:26:12;7.93;;;1.90;;
71965;SDS011;59836;52.132;5.442;2024-03-23T07:28:37;6.53;;;1.17;;
71965;SDS011;59836;52.132;5.442;2024-03-23T07:31:08;7.07;;;1.40;;
71965;SDS011;59836;52.132;5.442;2024-03-23T07:33:36;11.00;;;1.53;;
71965;SDS011;59836;52.132;5.442;2024-03-23T07:36:03;9.23;;;1.60;;
71965;SDS011;59836;52.132;5.442;2024-03-23T07:38:29;7.97;;;1.20;;
71965;SDS011;59836;52.132;5.442;2024-03-23T07:43:48;5.27;;;1.57;;
71965;SDS011;59836;52.132;5.442;2024-03-23T07:46:15;8.70;;;1.52;;
71965;SDS011;59836;52.132;5.442;2024-03-23T07:48:41;8.57;;;2.38;;
71965;SDS011;59836;52.132;5.442;2024-03-23T07:53:51;10.23;;;1.85;;
71965;SDS011;59836;52.132;5.442;2024-03-23T07:56:18;7.47;;;2.13;;
71965;SDS011;59836;52.132;5.442;2024-03-23T07:58:44;7.10;;;1.50;;
71965;SDS011;59836;52.132;5.442;2024-03-23T08:01:16;7.50;;;1.50;;
71965;SDS011;59836;52.132;5.442;2024-03-23T08:03:43;7.40;;;1.13;;
71965;SDS011;59836;52.132;5.442;2024-03-23T08:06:19;5.53;;;1.52;;
71965;SDS011;59836;52.132;5.442;2024-03-23T08:08:47;4.67;;;1.23;;
71965;SDS011;59836;52.132;5.442;2024-03-23T08:11:14;4.85;;;1.20;;
71965;SDS011;59836;52.132;5.442;2024-03-23T08:13:40;4.32;;;1.05;;
71965;SDS011;59836;52.132;5.442;2024-03-23T08:16:07;3.50;;;1.30;;
71965;SDS011;59836;52.132;5.442;2024-03-23T08:18:37;4.73;;;1.10;;
71965;SDS011;59836;52.132;5.442;2024-03-23T08:21:03;3.78;;;1.13;;
71965;SDS011;59836;52.132;5.442;2024-03-23T08:23:34;6.30;;;1.42;;
71965;SDS011;59836;52.132;5.442;2024-03-23T08:26:04;7.33;;;1.60;;
71965;SDS011;59836;52.132;5.442;2024-03-23T08:28:31;5.22;;;1.63;;
71965;SDS011;59836;52.132;5.442;2024-03-23T08:30:56;4.93;;;1.02;;
71965;SDS011;59836;52.132;5.442;2024-03-23T08:33:22;7.23;;;1.00;;
71965;SDS011;59836;52.132;5.442;2024-03-23T08:35:55;7.13;;;1.60;;
71965;SDS011;59836;52.132;5.442;2024-03-23T08:38:21;4.43;;;1.20;;
71965;SDS011;59836;52.132;5.442;2024-03-23T08:40:48;5.65;;;1.30;;
71965;SDS011;59836;52.132;5.442;2024-03-23T08:43:13;8.33;;;1.10;;
71965;SDS011;59836;52.132;5.442;2024-03-23T08:45:39;6.13;;;1.10;;
71965;SDS011;59836;52.132;5.442;2024-03-23T08:48:04;6.53;;;0.90;;
71965;SDS011;59836;52.132;5.442;2024-03-23T08:50:30;3.93;;;1.00;;
71965;SDS011;59836;52.132;5.442;2024-03-23T08:52:56;6.57;;;2.03;;
71965;SDS011;59836;52.132;5.442;2024-03-23T08:55:21;7.27;;;0.93;;
71965;SDS011;59836;52.132;5.442;2024-03-23T08:57:47;8.47;;;1.60;;
71965;SDS011;59836;52.132;5.442;2024-03-23T09:00:13;6.53;;;1.30;;
71965;SDS011;59836;52.132;5.442;2024-03-23T09:02:39;5.15;;;1.13;;
71965;SDS011;59836;52.132;5.442;2024-03-23T09:05:05;4.77;;;0.90;;
71965;SDS011;59836;52.132;5.442;2024-03-23T09:07:31;4.80;;;0.88;;
71965;SDS011;59836;52.132;5.442;2024-03-23T09:09:56;5.63;;;0.80;;
71965;SDS011;59836;52.132;5.442;2024-03-23T09:12:22;6.55;;;1.60;;
71965;SDS011;59836;52.132;5.442;2024-03-23T09:14:49;5.82;;;0.88;;
71965;SDS011;59836;52.132;5.442;2024-03-23T09:17:15;3.17;;;0.57;;
71965;SDS011;59836;52.132;5.442;2024-03-23T09:19:41;7.23;;;0.97;;
71965;SDS011;59836;52.132;5.442;2024-03-23T09:22:07;5.80;;;0.73;;
71965;SDS011;59836;52.132;5.442;2024-03-23T09:24:32;5.87;;;1.40;;
71965;SDS011;59836;52.132;5.442;2024-03-23T09:26:58;3.65;;;0.80;;
71965;SDS011;59836;52.132;5.442;2024-03-23T09:29:23;5.07;;;0.50;;
71965;SDS011;59836;52.132;5.442;2024-03-23T09:31:49;3.83;;;0.63;;
71965;SDS011;59836;52.132;5.442;2024-03-23T09:34:15;7.22;;;1.00;;
71965;SDS011;59836;52.132;5.442;2024-03-23T09:36:40;4.53;;;0.97;;
71965;SDS011;59836;52.132;5.442;2024-03-23T09:39:06;7.15;;;1.38;;
71965;SDS011;59836;52.132;5.442;2024-03-23T09:41:34;2.78;;;0.50;;
71965;SDS011;59836;52.132;5.442;2024-03-23T09:44:00;6.35;;;0.90;;
71965;SDS011;59836;52.132;5.442;2024-03-23T09:46:27;5.20;;;1.00;;
71965;SDS011;59836;52.132;5.442;2024-03-23T09:48:55;4.97;;;1.00;;
71965;SDS011;59836;52.132;5.442;2024-03-23T09:51:21;3.13;;;0.60;;
71965;SDS011;59836;52.132;5.442;2024-03-23T09:53:49;2.22;;;0.63;;
71965;SDS011;59836;52.132;5.442;2024-03-23T09:56:15;3.23;;;0.40;;
71965;SDS011;59836;52.132;5.442;2024-03-23T09:58:42;2.75;;;0.60;;
71965;SDS011;59836;52.132;5.442;2024-03-23T10:01:08;5.55;;;1.15;;
71965;SDS011;59836;52.132;5.442;2024-03-23T10:03:43;8.03;;;1.13;;
71965;SDS011;59836;52.132;5.442;2024-03-23T10:06:10;4.82;;;0.98;;
71965;SDS011;59836;52.132;5.442;2024-03-23T10:08:35;5.05;;;1.00;;
71965;SDS011;59836;52.132;5.442;2024-03-23T10:11:14;3.90;;;1.03;;
71965;SDS011;59836;52.132;5.442;2024-03-23T10:13:44;8.00;;;1.17;;
71965;SDS011;59836;52.132;5.442;2024-03-23T10:16:11;6.60;;;1.20;;
71965;SDS011;59836;52.132;5.442;2024-03-23T10:18:37;6.00;;;1.10;;
71965;SDS011;59836;52.132;5.442;2024-03-23T10:23:37;6.10;;;1.02;;
71965;SDS011;59836;52.132;5.442;2024-03-23T10:26:18;5.32;;;0.73;;
71965;SDS011;59836;52.132;5.442;2024-03-23T10:31:16;4.85;;;0.90;;
71965;SDS011;59836;52.132;5.442;2024-03-23T10:33:48;8.32;;;0.90;;
71965;SDS011;59836;52.132;5.442;2024-03-23T10:36:15;6.03;;;0.88;;
71965;SDS011;59836;52.132;5.442;2024-03-23T10:38:41;9.23;;;1.10;;
71965;SDS011;59836;52.132;5.442;2024-03-23T10:41:08;6.22;;;0.80;;
71965;SDS011;59836;52.132;5.442;2024-03-23T10:43:36;4.20;;;1.23;;
71965;SDS011;59836;52.132;5.442;2024-03-23T10:46:02;9.75;;;0.90;;
71965;SDS011;59836;52.132;5.442;2024-03-23T10:48:28;6.97;;;1.05;;
71965;SDS011;59836;52.132;5.442;2024-03-23T10:50:54;6.03;;;0.90;;
71965;SDS011;59836;52.132;5.442;2024-03-23T10:53:24;8.27;;;1.57;;
71965;SDS011;59836;52.132;5.442;2024-03-23T10:55:51;5.40;;;0.98;;
71965;SDS011;59836;52.132;5.442;2024-03-23T10:58:20;5.43;;;1.10;;
71965;SDS011;59836;52.132;5.442;2024-03-23T11:00:50;3.67;;;0.93;;
71965;SDS011;59836;52.132;5.442;2024-03-23T11:03:58;5.60;;;0.97;;
71965;SDS011;59836;52.132;5.442;2024-03-23T11:06:10;3.53;;;0.88;;
71965;SDS011;59836;52.132;5.442;2024-03-23T11:08:36;4.28;;;0.90;;
71965;SDS011;59836;52.132;5.442;2024-03-23T11:11:13;3.72;;;0.63;;
71965;SDS011;59836;52.132;5.442;2024-03-23T11:13:39;5.25;;;0.80;;
71965;SDS011;59836;52.132;5.442;2024-03-23T11:18:41;4.07;;;0.60;;
71965;SDS011;59836;52.132;5.442;2024-03-23T11:21:09;4.60;;;0.88;;
71965;SDS011;59836;52.132;5.442;2024-03-23T11:23:34;6.97;;;0.57;;
71965;SDS011;59836;52.132;5.442;2024-03-23T11:26:00;3.83;;;0.63;;
71965;SDS011;59836;52.132;5.442;2024-03-23T11:28:26;6.13;;;1.10;;
71965;SDS011;59836;52.132;5.442;2024-03-23T11:30:51;5.97;;;1.00;;
71965;SDS011;59836;52.132;5.442;2024-03-23T11:33:17;4.67;;;1.30;;
71965;SDS011;59836;52.132;5.442;2024-03-23T11:35:44;3.17;;;1.17;;
71965;SDS011;59836;52.132;5.442;2024-03-23T11:38:16;3.88;;;0.70;;
71965;SDS011;59836;52.132;5.442;2024-03-23T11:40:46;4.60;;;0.70;;
71965;SDS011;59836;52.132;5.442;2024-03-23T11:43:13;4.33;;;1.27;;
71965;SDS011;59836;52.132;5.442;2024-03-23T11:45:44;3.88;;;0.55;;
71965;SDS011;59836;52.132;5.442;2024-03-23T11:48:11;6.28;;;0.68;;
71965;SDS011;59836;52.132;5.442;2024-03-23T11:50:41;5.53;;;0.70;;
71965;SDS011;59836;52.132;5.442;2024-03-23T11:53:19;7.18;;;1.33;;
71965;SDS011;59836;52.132;5.442;2024-03-23T11:55:50;6.50;;;1.10;;
71965;SDS011;59836;52.132;5.442;2024-03-23T11:58:17;5.72;;;0.93;;
71965;SDS011;59836;52.132;5.442;2024-03-23T12:00:51;6.18;;;0.75;;
71965;SDS011;59836;52.132;5.442;2024-03-23T12:03:24;4.57;;;0.98;;
71965;SDS011;59836;52.132;5.442;2024-03-23T12:05:51;6.05;;;0.80;;
71965;SDS011;59836;52.132;5.442;2024-03-23T12:08:21;3.13;;;0.83;;
71965;SDS011;59836;52.132;5.442;2024-03-23T12:11:15;4.72;;;0.75;;
71965;SDS011;59836;52.132;5.442;2024-03-23T12:13:43;2.78;;;0.70;;
71965;SDS011;59836;52.132;5.442;2024-03-23T12:16:12;5.53;;;0.85;;
71965;SDS011;59836;52.132;5.442;2024-03-23T12:18:39;5.63;;;0.90;;
71965;SDS011;59836;52.132;5.442;2024-03-23T12:21:06;4.40;;;1.03;;
71965;SDS011;59836;52.132;5.442;2024-03-23T12:23:33;3.65;;;0.88;;
71965;SDS011;59836;52.132;5.442;2024-03-23T12:25:59;7.93;;;1.00;;
71965;SDS011;59836;52.132;5.442;2024-03-23T12:28:24;8.75;;;1.60;;
71965;SDS011;59836;52.132;5.442;2024-03-23T12:30:53;5.03;;;1.23;;
71965;SDS011;59836;52.132;5.442;2024-03-23T12:33:19;9.65;;;1.33;;
71965;SDS011;59836;52.132;5.442;2024-03-23T12:35:48;5.65;;;1.27;;
71965;SDS011;59836;52.132;5.442;2024-03-23T12:38:15;3.47;;;0.50;;
71965;SDS011;59836;52.132;5.442;2024-03-23T12:40:40;5.87;;;1.20;;
71965;SDS011;59836;52.132;5.442;2024-03-23T12:43:06;4.18;;;0.98;;
71965;SDS011;59836;52.132;5.442;2024-03-23T12:45:33;5.25;;;0.80;;
71965;SDS011;59836;52.132;5.442;2024-03-23T12:47:58;5.20;;;0.90;;
71965;SDS011;59836;52.132;5.442;2024-03-23T12:50:24;4.32;;;0.73;;
71965;SDS011;59836;52.132;5.442;2024-03-23T12:52:50;5.23;;;1.10;;
71965;SDS011;59836;52.132;5.442;2024-03-23T12:55:16;6.07;;;1.02;;
71965;SDS011;59836;52.132;5.442;2024-03-23T12:57:42;6.70;;;0.90;;
71965;SDS011;59836;52.132;5.442;2024-03-23T13:00:07;7.43;;;1.20;;
71965;SDS011;59836;52.132;5.442;2024-03-23T13:02:37;3.20;;;0.80;;
71965;SDS011;59836;52.132;5.442;2024-03-23T13:05:05;4.88;;;0.52;;
71965;SDS011;59836;52.132;5.442;2024-03-23T13:07:33;4.68;;;1.48;;
71965;SDS011;59836;52.132;5.442;2024-03-23T13:09:58;5.47;;;0.70;;
71965;SDS011;59836;52.132;5.442;2024-03-23T13:12:24;3.33;;;0.80;;
71965;SDS011;59836;52.132;5.442;2024-03-23T13:14:50;4.40;;;1.00;;
71965;SDS011;59836;52.132;5.442;2024-03-23T13:17:15;6.50;;;0.80;;
71965;SDS011;59836;52.132;5.442;2024-03-23T13:19:41;4.53;;;0.98;;
71965;SDS011;59836;52.132;5.442;2024-03-23T13:22:06;5.90;;;0.97;;
71965;SDS011;59836;52.132;5.442;2024-03-23T13:24:32;4.28;;;1.30;;
71965;SDS011;59836;52.132;5.442;2024-03-23T13:26:58;4.97;;;0.47;;
71965;SDS011;59836;52.132;5.442;2024-03-23T13:29:24;3.72;;;0.50;;
71965;SDS011;59836;52.132;5.442;2024-03-23T13:31:50;1.23;;;0.40;;
71965;SDS011;59836;52.132;5.442;2024-03-23T13:34:17;1.87;;;0.37;;
71965;SDS011;59836;52.132;5.442;2024-03-23T13:36:44;1.20;;;0.43;;
71965;SDS011;59836;52.132;5.442;2024-03-23T13:39:10;3.20;;;0.57;;
71965;SDS011;59836;52.132;5.442;2024-03-23T13:41:40;1.30;;;0.55;;
71965;SDS011;59836;52.132;5.442;2024-03-23T13:44:06;2.08;;;0.50;;
71965;SDS011;59836;52.132;5.442;2024-03-23T13:46:33;1.73;;;0.40;;
71965;SDS011;59836;52.132;5.442;2024-03-23T13:48:59;3.60;;;0.77;;
71965;SDS011;59836;52.132;5.442;2024-03-23T13:51:26;2.50;;;0.40;;
71965;SDS011;59836;52.132;5.442;2024-03-23T13:53:54;2.50;;;0.80;;
71965;SDS011;59836;52.132;5.442;2024-03-23T13:56:24;2.53;;;0.50;;
71965;SDS011;59836;52.132;5.442;2024-03-23T13:58:50;3.13;;;0.80;;
71965;SDS011;59836;52.132;5.442;2024-03-23T14:01:16;3.83;;;0.90;;
71965;SDS011;59836;52.132;5.442;2024-03-23T14:03:43;3.33;;;0.70;;
71965;SDS011;59836;52.132;5.442;2024-03-23T14:06:09;4.53;;;0.70;;
71965;SDS011;59836;52.132;5.442;2024-03-23T14:08:35;4.97;;;1.42;;
71965;SDS011;59836;52.132;5.442;2024-03-23T14:11:05;2.30;;;0.60;;
71965;SDS011;59836;52.132;5.442;2024-03-23T14:13:34;6.30;;;0.98;;
71965;SDS011;59836;52.132;5.442;2024-03-23T14:16:00;3.65;;;0.82;;
71965;SDS011;59836;52.132;5.442;2024-03-23T14:18:26;5.70;;;1.10;;
71965;SDS011;59836;52.132;5.442;2024-03-23T14:20:55;5.68;;;1.58;;
71965;SDS011;59836;52.132;5.442;2024-03-23T14:23:24;4.85;;;1.08;;
71965;SDS011;59836;52.132;5.442;2024-03-23T14:25:54;6.60;;;0.98;;
71965;SDS011;59836;52.132;5.442;2024-03-23T14:28:20;4.20;;;0.80;;
71965;SDS011;59836;52.132;5.442;2024-03-23T14:30:47;2.70;;;0.90;;
71965;SDS011;59836;52.132;5.442;2024-03-23T14:33:12;4.07;;;0.80;;
71965;SDS011;59836;52.132;5.442;2024-03-23T14:35:38;3.97;;;0.47;;
71965;SDS011;59836;52.132;5.442;2024-03-23T14:38:04;7.18;;;0.75;;
71965;SDS011;59836;52.132;5.442;2024-03-23T14:40:29;5.10;;;0.50;;
71965;SDS011;59836;52.132;5.442;2024-03-23T14:42:55;3.13;;;0.50;;
71965;SDS011;59836;52.132;5.442;2024-03-23T14:45:23;2.72;;;0.60;;
71965;SDS011;59836;52.132;5.442;2024-03-23T14:47:53;3.97;;;0.80;;
71965;SDS011;59836;52.132;5.442;2024-03-23T14:50:18;3.20;;;1.05;;
71965;SDS011;59836;52.132;5.442;2024-03-23T14:52:44;7.03;;;1.07;;
71965;SDS011;59836;52.132;5.442;2024-03-23T14:55:11;5.60;;;0.75;;
71965;SDS011;59836;52.132;5.442;2024-03-23T14:57:40;5.10;;;1.20;;
71965;SDS011;59836;52.132;5.442;2024-03-23T15:00:06;2.90;;;0.63;;
71965;SDS011;59836;52.132;5.442;2024-03-23T15:02:35;3.08;;;0.47;;
71965;SDS011;59836;52.132;5.442;2024-03-23T15:05:04;4.55;;;0.73;;
71965;SDS011;59836;52.132;5.442;2024-03-23T15:07:31;5.95;;;0.80;;
71965;SDS011;59836;52.132;5.442;2024-03-23T15:09:57;3.47;;;0.57;;
71965;SDS011;59836;52.132;5.442;2024-03-23T15:12:23;2.47;;;0.68;;
71965;SDS011;59836;52.132;5.442;2024-03-23T15:14:48;2.33;;;0.70;;
71965;SDS011;59836;52.132;5.442;2024-03-23T15:17:14;4.75;;;0.70;;
71965;SDS011;59836;52.132;5.442;2024-03-23T15:19:39;3.73;;;0.70;;
71965;SDS011;59836;52.132;5.442;2024-03-23T15:22:07;2.90;;;0.63;;
71965;SDS011;59836;52.132;5.442;2024-03-23T15:24:34;2.20;;;0.65;;
71965;SDS011;59836;52.132;5.442;2024-03-23T15:27:01;2.30;;;1.00;;
71965;SDS011;59836;52.132;5.442;2024-03-23T15:29:28;4.73;;;0.77;;
71965;SDS011;59836;52.132;5.442;2024-03-23T15:31:54;3.08;;;0.77;;
71965;SDS011;59836;52.132;5.442;2024-03-23T15:34:19;3.93;;;0.90;;
71965;SDS011;59836;52.132;5.442;2024-03-23T15:36:47;3.40;;;0.50;;
71965;SDS011;59836;52.132;5.442;2024-03-23T15:39:16;2.53;;;0.70;;
71965;SDS011;59836;52.132;5.442;2024-03-23T15:41:43;4.70;;;0.93;;
71965;SDS011;59836;52.132;5.442;2024-03-23T15:44:09;3.22;;;0.77;;
71965;SDS011;59836;52.132;5.442;2024-03-23T15:46:35;4.00;;;0.73;;